Time;durP1;ratioP1;P1;durP2;ratioP2;P2;SDS_P1;SDS_P2;PMS_P1;PMS_P2;Temp;Humidity;BMP_temperature;BMP_pressure;BME280_temperature;BME280_humidity;BME280_pressure;Samples;Min_cycle;Max_cycle;Signal;HPM_P1;HPM_P2
2024/01/16 00:01:43;;;;;;;23.70;17.47;;;0.70;99.90;;;;;;5096756;28;20177;-63
2024/01/16 00:04:10;;;;;;;22.27;18.27;;;0.70;99.90;;;;;;5096484;28;20544;-63
2024/01/16 00:06:40;;;;;;;26.10;18.80;;;0.80;99.90;;;;;;5096599;28;20204;-63
2024/01/16 00:09:06;;;;;;;22.47;16.77;;;0.80;99.90;;;;;;5096298;28;20173;-63
2024/01/16 00:11:32;;;;;;;23.57;17.03;;;0.70;99.90;;;;;;5096551;28;20157;-63
2024/01/16 00:13:57;;;;;;;27.80;18.17;;;0.70;99.90;;;;;;5096475;28;20230;-63
2024/01/16 00:16:23;;;;;;;25.43;18.07;;;0.80;99.90;;;;;;5096119;28;20170;-63
2024/01/16 00:18:49;;;;;;;27.17;18.07;;;0.80;99.90;;;;;;5096337;28;20177;-63
2024/01/16 00:21:15;;;;;;;25.73;18.03;;;0.80;99.90;;;;;;5096181;28;20181;-63
2024/01/16 00:23:41;;;;;;;25.90;17.23;;;0.80;99.90;;;;;;5096117;28;20165;-63
2024/01/16 00:26:06;;;;;;;27.20;17.43;;;0.80;99.90;;;;;;5096391;28;20654;-62
2024/01/16 00:28:32;;;;;;;24.03;17.20;;;0.80;99.90;;;;;;5096091;28;20200;-63
2024/01/16 00:30:58;;;;;;;21.80;17.97;;;0.80;99.90;;;;;;5095296;28;20667;-63
2024/01/16 00:33:24;;;;;;;26.47;17.40;;;0.70;99.90;;;;;;5096399;28;20211;-63
2024/01/16 00:35:49;;;;;;;22.30;16.60;;;0.70;99.90;;;;;;5095902;28;20181;-63
2024/01/16 00:38:15;;;;;;;24.80;16.90;;;0.70;99.90;;;;;;5095872;28;20215;-63
2024/01/16 00:40:41;;;;;;;25.17;17.63;;;0.70;99.90;;;;;;5095882;28;20173;-63
2024/01/16 00:43:07;;;;;;;23.30;17.50;;;0.70;99.90;;;;;;5095620;28;20191;-62
2024/01/16 00:45:32;;;;;;;23.17;16.73;;;0.70;99.90;;;;;;5096030;28;20173;-63
2024/01/16 00:47:58;;;;;;;20.93;17.10;;;0.70;99.90;;;;;;5095976;28;20224;-63
2024/01/16 00:50:24;;;;;;;27.03;18.20;;;0.70;99.90;;;;;;5095477;28;20193;-62
2024/01/16 00:52:50;;;;;;;20.77;16.50;;;0.70;99.90;;;;;;5096018;28;20193;-63
2024/01/16 00:55:16;;;;;;;21.20;17.17;;;0.70;99.90;;;;;;5095625;28;20205;-62
2024/01/16 00:57:42;;;;;;;22.73;16.90;;;0.70;99.90;;;;;;5095431;28;20228;-62
2024/01/16 01:00:09;;;;;;;24.87;18.23;;;0.70;99.90;;;;;;5095516;28;20630;-62
2024/01/16 01:02:35;;;;;;;24.00;16.57;;;0.70;99.90;;;;;;5095329;28;20154;-63
2024/01/16 01:05:01;;;;;;;27.20;17.10;;;0.70;99.90;;;;;;5095278;28;20230;-63
2024/01/16 01:07:27;;;;;;;29.33;17.40;;;0.70;99.90;;;;;;5095250;28;20260;-63
2024/01/16 01:09:53;;;;;;;23.60;17.40;;;0.70;99.90;;;;;;5095751;28;20153;-62
2024/01/16 01:12:18;;;;;;;28.17;16.97;;;0.70;99.90;;;;;;5095076;28;20651;-63
2024/01/16 01:14:44;;;;;;;23.53;16.50;;;0.70;99.90;;;;;;5095180;28;20181;-63
2024/01/16 01:17:10;;;;;;;25.83;17.03;;;0.70;99.90;;;;;;5094983;28;20208;-62
2024/01/16 01:19:36;;;;;;;23.40;16.33;;;0.70;99.90;;;;;;5095110;28;20260;-63
2024/01/16 01:22:01;;;;;;;19.47;15.80;;;0.60;99.90;;;;;;5095141;28;20525;-63
2024/01/16 01:24:27;;;;;;;24.60;16.90;;;0.70;99.90;;;;;;5095357;28;20172;-62
2024/01/16 01:26:53;;;;;;;30.27;18.03;;;0.70;99.90;;;;;;5094586;28;20662;-63
2024/01/16 01:29:19;;;;;;;20.93;17.77;;;0.70;99.90;;;;;;5094802;28;20256;-62
2024/01/16 01:31:47;;;;;;;26.57;17.87;;;0.60;99.90;;;;;;5093515;28;20216;-63
2024/01/16 01:34:14;;;;;;;24.07;17.13;;;0.60;99.90;;;;;;5095257;28;20691;-63
2024/01/16 01:36:39;;;;;;;21.73;17.97;;;0.50;99.90;;;;;;5094646;28;20212;-62
2024/01/16 01:39:05;;;;;;;27.03;18.07;;;0.50;99.90;;;;;;5094650;28;20176;-62
2024/01/16 01:41:31;;;;;;;30.00;19.37;;;0.40;99.90;;;;;;5093260;28;20204;-62
2024/01/16 01:43:57;;;;;;;28.40;17.57;;;0.30;99.90;;;;;;5093680;28;20165;-62
2024/01/16 01:46:23;;;;;;;24.33;19.10;;;0.30;99.90;;;;;;5094491;28;20177;-63
2024/01/16 01:48:50;;;;;;;32.40;20.00;;;0.30;99.90;;;;;;5094502;28;20226;-64
2024/01/16 01:51:18;;;;;;;31.77;19.43;;;0.20;99.90;;;;;;5094261;28;20646;-63
2024/01/16 01:53:46;;;;;;;25.97;19.20;;;0.20;99.90;;;;;;5094649;28;20264;-63
2024/01/16 01:56:16;;;;;;;23.47;19.20;;;0.30;99.90;;;;;;5094042;28;20291;-62
2024/01/16 01:58:44;;;;;;;31.63;18.30;;;0.30;99.90;;;;;;5094899;28;20158;-63
2024/01/16 02:01:11;;;;;;;29.83;19.00;;;0.30;99.90;;;;;;5094282;28;20576;-64
2024/01/16 02:03:45;;;;;;;25.27;18.20;;;0.40;99.90;;;;;;5094420;28;20173;-63
2024/01/16 02:06:16;;;;;;;25.70;18.50;;;0.40;99.90;;;;;;5094018;28;20201;-63
2024/01/16 02:08:42;;;;;;;27.90;18.50;;;0.40;99.90;;;;;;5094491;28;20639;-63
2024/01/16 02:11:08;;;;;;;22.23;18.00;;;0.40;99.90;;;;;;5094004;28;20661;-63
2024/01/16 02:13:34;;;;;;;30.20;18.80;;;0.40;99.90;;;;;;5093543;28;20189;-63
2024/01/16 02:16:01;;;;;;;28.53;17.87;;;0.40;99.90;;;;;;5093902;28;20188;-63
2024/01/16 02:18:27;;;;;;;29.43;18.07;;;0.40;99.90;;;;;;5093879;28;20205;-63
2024/01/16 02:20:59;;;;;;;35.20;18.23;;;0.40;99.90;;;;;;5093868;28;20201;-63
2024/01/16 02:23:27;;;;;;;23.53;17.80;;;0.40;99.90;;;;;;5094156;28;20165;-63
2024/01/16 02:25:54;;;;;;;27.17;16.30;;;0.40;99.90;;;;;;5094037;28;20246;-63
2024/01/16 02:28:20;;;;;;;28.30;18.27;;;0.40;99.90;;;;;;5093555;28;20251;-63
2024/01/16 02:30:46;;;;;;;30.70;17.33;;;0.40;99.90;;;;;;5094187;28;20181;-63
2024/01/16 02:33:12;;;;;;;30.33;17.53;;;0.40;99.90;;;;;;5094212;28;20204;-63
2024/01/16 02:35:37;;;;;;;23.17;17.33;;;0.40;99.90;;;;;;5093906;28;20213;-63
2024/01/16 02:38:04;;;;;;;27.60;16.93;;;0.40;99.90;;;;;;5092224;28;20212;-63
2024/01/16 02:40:30;;;;;;;24.77;16.57;;;0.50;99.90;;;;;;5093566;28;20173;-63
2024/01/16 02:42:55;;;;;;;26.00;17.20;;;0.40;99.90;;;;;;5093432;28;20184;-63
2024/01/16 02:45:22;;;;;;;23.73;17.43;;;0.40;99.90;;;;;;5093639;28;20169;-63
2024/01/16 02:47:48;;;;;;;24.77;16.00;;;0.40;99.90;;;;;;5093463;28;20201;-63
2024/01/16 02:50:14;;;;;;;25.73;18.17;;;0.40;99.90;;;;;;5093375;28;20192;-64
2024/01/16 02:52:40;;;;;;;31.33;17.20;;;0.40;99.90;;;;;;5093703;28;20153;-63
2024/01/16 02:55:06;;;;;;;33.10;18.17;;;0.40;99.90;;;;;;5093803;28;20208;-63
2024/01/16 02:57:32;;;;;;;24.27;16.47;;;0.40;99.90;;;;;;5093220;28;20204;-63
2024/01/16 02:59:58;;;;;;;25.17;16.60;;;0.40;99.90;;;;;;5091928;28;20182;-62
2024/01/16 03:02:23;;;;;;;28.67;16.83;;;0.40;99.90;;;;;;5093660;28;20269;-63
2024/01/16 03:04:50;;;;;;;27.93;17.87;;;0.50;99.90;;;;;;5093359;28;20286;-63
2024/01/16 03:07:16;;;;;;;22.27;16.00;;;0.50;99.90;;;;;;5093194;28;20193;-64
2024/01/16 03:09:41;;;;;;;24.13;16.93;;;0.50;99.90;;;;;;5093675;28;20679;-63
2024/01/16 03:12:07;;;;;;;24.13;15.40;;;0.50;99.90;;;;;;5093191;28;20181;-63
2024/01/16 03:14:34;;;;;;;28.27;17.00;;;0.50;99.90;;;;;;5093921;28;20209;-63
2024/01/16 03:17:03;;;;;;;25.87;16.27;;;0.40;99.90;;;;;;5093147;28;20597;-62
2024/01/16 03:19:29;;;;;;;26.10;17.20;;;0.50;99.90;;;;;;5093452;28;20177;-63
2024/01/16 03:21:55;;;;;;;23.43;16.93;;;0.40;99.90;;;;;;5093231;28;20235;-62
2024/01/16 03:24:21;;;;;;;25.13;18.20;;;0.40;99.90;;;;;;5093771;28;20177;-63
2024/01/16 03:26:47;;;;;;;24.00;18.33;;;0.40;99.90;;;;;;5092966;28;20573;-64
2024/01/16 03:29:12;;;;;;;23.60;17.73;;;0.50;99.90;;;;;;5093132;28;20576;-63
2024/01/16 03:31:38;;;;;;;29.37;18.63;;;0.50;99.90;;;;;;5092976;28;20656;-63
2024/01/16 03:34:04;;;;;;;28.57;19.67;;;0.50;99.90;;;;;;5093428;28;20660;-63
2024/01/16 03:36:29;;;;;;;27.33;19.90;;;0.50;99.90;;;;;;5092855;28;20257;-63
2024/01/16 03:38:56;;;;;;;27.73;19.97;;;0.50;99.90;;;;;;5093323;28;20208;-63
2024/01/16 03:41:22;;;;;;;29.27;19.57;;;0.50;99.90;;;;;;5093003;28;20210;-63
2024/01/16 03:43:47;;;;;;;32.70;20.57;;;0.60;99.90;;;;;;5092911;28;20257;-63
2024/01/16 03:46:13;;;;;;;34.63;21.00;;;0.50;99.90;;;;;;5092882;28;20173;-62
2024/01/16 03:48:39;;;;;;;29.77;20.03;;;0.50;99.90;;;;;;5092954;28;20186;-63
2024/01/16 03:51:06;;;;;;;27.17;19.70;;;0.60;99.90;;;;;;5093037;28;20279;-63
2024/01/16 03:53:32;;;;;;;28.30;20.27;;;0.60;99.90;;;;;;5093149;28;20236;-63
2024/01/16 03:55:58;;;;;;;36.50;20.97;;;0.60;99.90;;;;;;5092888;28;20638;-63
2024/01/16 03:58:24;;;;;;;32.13;22.53;;;0.60;99.90;;;;;;5092476;28;20212;-63
2024/01/16 04:00:50;;;;;;;29.80;22.23;;;0.60;99.90;;;;;;5093166;28;20184;-62
2024/01/16 04:03:17;;;;;;;30.37;21.30;;;0.60;99.90;;;;;;5093172;28;20657;-63
2024/01/16 04:05:43;;;;;;;31.23;22.77;;;0.60;99.90;;;;;;5092823;28;20286;-63
2024/01/16 04:08:08;;;;;;;34.37;21.97;;;0.60;99.90;;;;;;5096218;28;20706;-63
2024/01/16 04:10:34;;;;;;;27.80;21.40;;;0.60;99.90;;;;;;5095168;28;20535;-63
2024/01/16 04:13:01;;;;;;;32.97;23.00;;;0.60;99.90;;;;;;5096450;28;20271;-63
2024/01/16 04:15:28;;;;;;;37.27;23.70;;;0.60;99.90;;;;;;5096393;28;20173;-63
2024/01/16 04:17:54;;;;;;;35.00;23.83;;;0.60;99.90;;;;;;5096751;28;20208;-63
2024/01/16 04:20:20;;;;;;;33.23;23.60;;;0.70;99.90;;;;;;5095134;28;20561;-63
2024/01/16 04:22:46;;;;;;;35.40;24.30;;;0.60;99.90;;;;;;5096412;28;20181;-62
2024/01/16 04:25:12;;;;;;;34.80;22.47;;;0.70;99.90;;;;;;5096430;28;20204;-63
2024/01/16 04:27:37;;;;;;;35.40;22.27;;;0.70;99.90;;;;;;5095728;28;20228;-63
2024/01/16 04:30:04;;;;;;;28.67;20.57;;;0.70;99.90;;;;;;5096251;28;20550;-63
2024/01/16 04:32:29;;;;;;;32.67;22.30;;;0.70;99.90;;;;;;5096548;28;20227;-63
2024/01/16 04:34:55;;;;;;;32.63;21.37;;;0.70;99.90;;;;;;5096564;28;20181;-63
2024/01/16 04:37:21;;;;;;;27.63;21.20;;;0.70;99.90;;;;;;5095992;28;20208;-63
2024/01/16 04:39:47;;;;;;;33.27;22.47;;;0.70;99.90;;;;;;5095769;28;20184;-63
2024/01/16 04:42:12;;;;;;;32.27;21.30;;;0.70;99.90;;;;;;5095480;28;20174;-63
2024/01/16 04:44:38;;;;;;;32.80;21.97;;;0.70;99.90;;;;;;5095851;28;20548;-63
2024/01/16 04:47:04;;;;;;;30.53;21.47;;;0.70;99.90;;;;;;5095639;28;20205;-63
2024/01/16 04:49:30;;;;;;;33.90;21.77;;;0.70;99.90;;;;;;5095857;28;20184;-63
2024/01/16 04:51:55;;;;;;;26.17;20.03;;;0.70;99.90;;;;;;5095970;28;20204;-63
2024/01/16 04:54:21;;;;;;;33.63;22.10;;;0.70;99.90;;;;;;5095886;28;20260;-63
2024/01/16 04:56:47;;;;;;;29.10;21.43;;;0.70;99.90;;;;;;5095117;28;20673;-63
2024/01/16 04:59:12;;;;;;;29.00;20.87;;;0.80;99.90;;;;;;5095843;28;20521;-63
2024/01/16 05:01:38;;;;;;;34.77;22.70;;;0.70;99.90;;;;;;5095593;28;20552;-63
2024/01/16 05:04:04;;;;;;;33.87;23.30;;;0.70;99.90;;;;;;5095494;28;20694;-63
2024/01/16 05:06:30;;;;;;;34.93;23.27;;;0.70;99.90;;;;;;5095365;28;20698;-63
2024/01/16 05:08:56;;;;;;;31.33;22.67;;;0.70;99.90;;;;;;5095355;28;20173;-63
2024/01/16 05:11:22;;;;;;;41.33;23.90;;;0.70;99.90;;;;;;5095189;28;20178;-64
2024/01/16 05:13:48;;;;;;;29.10;21.93;;;0.70;99.90;;;;;;5094860;28;20173;-63
2024/01/16 05:16:14;;;;;;;32.93;23.17;;;0.70;99.90;;;;;;5095332;28;20181;-63
2024/01/16 05:18:43;;;;;;;36.30;23.03;;;0.70;99.90;;;;;;5093562;28;20208;-63
2024/01/16 05:21:09;;;;;;;33.43;22.90;;;0.70;99.90;;;;;;5095005;28;20177;-63
2024/01/16 05:23:34;;;;;;;31.57;23.67;;;0.70;99.90;;;;;;5095040;28;20184;-63
2024/01/16 05:26:00;;;;;;;29.00;22.23;;;0.70;99.90;;;;;;5095032;28;20177;-64
2024/01/16 05:28:26;;;;;;;28.47;21.00;;;0.70;99.90;;;;;;5093286;28;20262;-63
2024/01/16 05:30:52;;;;;;;38.40;22.70;;;0.70;99.90;;;;;;5095068;28;20189;-63
2024/01/16 05:33:18;;;;;;;30.20;22.20;;;0.70;99.90;;;;;;5094667;28;20177;-63
2024/01/16 05:35:43;;;;;;;29.37;21.73;;;0.70;99.90;;;;;;5094730;28;20712;-63
2024/01/16 05:38:12;;;;;;;32.63;22.83;;;0.70;99.90;;;;;;5094581;28;20583;-63
2024/01/16 05:40:38;;;;;;;30.50;22.00;;;0.80;99.90;;;;;;5094634;28;20186;-63
2024/01/16 05:43:03;;;;;;;32.00;22.60;;;0.70;99.90;;;;;;5094439;28;20180;-63
2024/01/16 05:45:29;;;;;;;32.87;23.23;;;0.70;99.90;;;;;;5094442;28;20177;-63
2024/01/16 05:47:56;;;;;;;33.23;22.23;;;0.70;99.90;;;;;;5094361;28;20217;-63
2024/01/16 05:50:22;;;;;;;34.30;22.57;;;0.70;99.90;;;;;;5094605;28;20195;-63
2024/01/16 05:52:47;;;;;;;35.63;23.53;;;0.70;99.90;;;;;;5094767;28;20244;-63
2024/01/16 05:55:13;;;;;;;39.50;25.80;;;0.70;99.90;;;;;;5094307;28;20177;-63
2024/01/16 05:57:39;;;;;;;37.93;25.40;;;0.70;99.90;;;;;;5093951;28;20205;-63
2024/01/16 06:00:06;;;;;;;35.43;23.70;;;0.70;99.90;;;;;;5094375;28;20201;-62
2024/01/16 06:02:32;;;;;;;36.90;24.77;;;0.70;99.90;;;;;;5094199;28;20255;-63
2024/01/16 06:04:58;;;;;;;29.40;22.60;;;0.70;99.90;;;;;;5094567;28;20216;-62
2024/01/16 06:07:23;;;;;;;38.10;23.60;;;0.70;99.90;;;;;;5094356;28;20207;-63
2024/01/16 06:09:49;;;;;;;36.30;22.20;;;0.70;99.90;;;;;;5093969;28;20177;-63
2024/01/16 06:12:15;;;;;;;34.80;22.87;;;0.70;99.90;;;;;;5093711;28;20181;-63
2024/01/16 06:14:41;;;;;;;34.00;21.40;;;0.70;99.90;;;;;;5093942;28;20550;-63
2024/01/16 06:17:07;;;;;;;31.13;20.63;;;0.70;99.90;;;;;;5093683;28;20711;-63
2024/01/16 06:19:32;;;;;;;29.50;20.80;;;0.60;99.90;;;;;;5092757;28;20589;-63
2024/01/16 06:21:59;;;;;;;27.40;20.13;;;0.70;99.90;;;;;;5094113;28;20173;-63
2024/01/16 06:24:25;;;;;;;26.40;19.33;;;0.70;99.90;;;;;;5093937;28;20184;-62
2024/01/16 06:26:51;;;;;;;26.47;19.77;;;0.70;99.90;;;;;;5093655;28;20201;-63
2024/01/16 06:29:17;;;;;;;30.60;20.43;;;0.70;99.90;;;;;;5091522;28;20185;-63
2024/01/16 06:31:43;;;;;;;21.00;18.10;;;0.80;99.90;;;;;;5093867;28;20272;-64
2024/01/16 06:34:09;;;;;;;26.57;19.40;;;0.80;99.90;;;;;;5093596;28;20193;-63
2024/01/16 06:36:35;;;;;;;26.53;20.57;;;0.90;99.90;;;;;;5093964;28;20276;-63
2024/01/16 06:39:01;;;;;;;28.77;20.57;;;0.80;99.90;;;;;;5093492;28;20173;-64
2024/01/16 06:41:26;;;;;;;30.20;18.90;;;0.80;99.90;;;;;;5093458;28;20700;-64
2024/01/16 06:43:52;;;;;;;25.60;19.67;;;0.70;99.90;;;;;;5093241;28;20176;-63
2024/01/16 06:46:18;;;;;;;30.97;18.13;;;0.70;99.90;;;;;;5093634;28;20234;-64
2024/01/16 06:48:44;;;;;;;26.00;18.07;;;0.70;99.90;;;;;;5093326;28;20177;-63
2024/01/16 06:51:13;;;;;;;27.90;18.70;;;0.70;99.90;;;;;;5093132;28;20286;-63
2024/01/16 06:53:39;;;;;;;24.30;19.40;;;0.70;99.90;;;;;;5092076;28;20189;-64
2024/01/16 06:56:07;;;;;;;26.30;18.10;;;0.60;99.90;;;;;;5093552;28;20196;-64
2024/01/16 06:58:33;;;;;;;29.20;18.57;;;0.70;99.90;;;;;;5092948;28;20268;-63
2024/01/16 07:01:00;;;;;;;31.80;18.30;;;0.70;99.90;;;;;;5093247;28;20590;-64
2024/01/16 07:03:26;;;;;;;24.43;19.37;;;0.70;99.90;;;;;;5093226;28;20546;-64
2024/01/16 07:05:52;;;;;;;22.97;18.00;;;0.70;99.90;;;;;;5093459;28;20165;-63
2024/01/16 07:08:17;;;;;;;23.27;18.20;;;0.70;99.90;;;;;;5093449;28;20205;-64
2024/01/16 07:10:43;;;;;;;23.07;17.47;;;0.70;99.90;;;;;;5093189;28;20176;-63
2024/01/16 07:13:09;;;;;;;19.87;16.93;;;0.60;99.90;;;;;;5092828;28;20181;-64
2024/01/16 07:15:35;;;;;;;24.87;18.17;;;0.70;99.90;;;;;;5093086;28;20638;-64
2024/01/16 07:18:01;;;;;;;20.43;17.57;;;0.70;99.90;;;;;;5093200;28;20205;-64
2024/01/16 07:20:27;;;;;;;23.00;17.07;;;0.70;99.90;;;;;;5093585;28;20538;-64
2024/01/16 07:22:52;;;;;;;24.93;17.70;;;0.60;99.90;;;;;;5093584;28;20188;-64
2024/01/16 07:25:18;;;;;;;25.37;18.30;;;0.60;99.90;;;;;;5092986;28;20177;-64
2024/01/16 07:27:46;;;;;;;25.20;17.33;;;0.60;99.90;;;;;;5092770;28;20200;-63
2024/01/16 07:30:12;;;;;;;24.60;18.17;;;0.60;99.90;;;;;;5093227;28;20666;-64
2024/01/16 07:32:38;;;;;;;21.33;17.00;;;0.60;99.90;;;;;;5093428;28;20177;-64
2024/01/16 07:35:04;;;;;;;24.23;17.57;;;0.70;99.90;;;;;;5092993;28;20370;-63
2024/01/16 07:37:30;;;;;;;24.27;16.37;;;0.60;99.90;;;;;;5092805;28;20209;-63
2024/01/16 07:39:56;;;;;;;22.70;18.47;;;0.60;99.90;;;;;;5093151;28;20182;-63
2024/01/16 07:42:21;;;;;;;21.57;17.93;;;0.60;99.90;;;;;;5095291;28;20202;-64
2024/01/16 07:44:48;;;;;;;29.30;21.00;;;0.60;99.90;;;;;;5097351;28;20173;-63
2024/01/16 07:47:13;;;;;;;26.77;19.33;;;0.60;99.90;;;;;;5096677;28;20692;-64
2024/01/16 07:49:39;;;;;;;29.77;18.73;;;0.60;99.90;;;;;;5096651;28;20181;-64
2024/01/16 07:52:05;;;;;;;28.07;19.10;;;0.60;99.90;;;;;;5096601;28;20220;-64
2024/01/16 07:54:31;;;;;;;28.23;20.70;;;0.60;99.90;;;;;;5096612;28;20192;-64
2024/01/16 07:56:57;;;;;;;28.80;20.83;;;0.50;99.90;;;;;;5096450;28;20205;-63
2024/01/16 07:59:23;;;;;;;31.33;21.63;;;0.50;99.90;;;;;;5096228;28;20177;-63
2024/01/16 08:01:49;;;;;;;30.80;22.03;;;0.50;99.90;;;;;;5096418;28;20173;-63
2024/01/16 08:04:15;;;;;;;31.70;21.70;;;0.60;99.90;;;;;;5096433;28;20256;-63
2024/01/16 08:06:42;;;;;;;27.80;21.17;;;0.60;99.90;;;;;;5096350;28;20754;-63
2024/01/16 08:09:08;;;;;;;33.03;21.60;;;0.50;99.90;;;;;;5096601;28;20218;-64
2024/01/16 08:11:36;;;;;;;36.27;21.13;;;0.50;99.90;;;;;;5096896;28;20260;-63
2024/01/16 08:14:01;;;;;;;30.57;21.00;;;0.50;99.90;;;;;;5094724;28;20208;-63
2024/01/16 08:16:27;;;;;;;24.93;19.53;;;0.50;99.90;;;;;;5096356;28;20543;-63
2024/01/16 08:18:53;;;;;;;26.47;19.37;;;0.50;99.90;;;;;;5096169;28;20177;-63
2024/01/16 08:21:19;;;;;;;25.27;19.37;;;0.50;99.90;;;;;;5096221;28;20181;-64
2024/01/16 08:23:44;;;;;;;30.40;20.37;;;0.50;99.90;;;;;;5095960;28;20184;-64
2024/01/16 08:26:10;;;;;;;31.97;18.60;;;0.60;99.90;;;;;;5096011;28;20219;-64
2024/01/16 08:28:36;;;;;;;25.97;18.30;;;0.50;99.90;;;;;;5095542;28;20197;-64
2024/01/16 08:31:02;;;;;;;24.67;18.83;;;0.60;99.90;;;;;;5095897;28;20566;-63
2024/01/16 08:33:28;;;;;;;23.03;17.27;;;0.50;99.90;;;;;;5095785;28;20205;-63
2024/01/16 08:35:53;;;;;;;24.77;17.37;;;0.50;99.90;;;;;;5095809;28;20169;-63
2024/01/16 08:38:19;;;;;;;22.53;17.00;;;0.50;99.90;;;;;;5095948;28;20244;-63
2024/01/16 08:40:45;;;;;;;24.33;16.00;;;0.50;99.90;;;;;;5095762;28;20177;-63
2024/01/16 08:43:11;;;;;;;23.67;15.63;;;0.50;99.90;;;;;;5095459;28;20184;-63
2024/01/16 08:45:36;;;;;;;20.77;15.20;;;0.50;99.90;;;;;;5095660;28;20212;-63
2024/01/16 08:48:02;;;;;;;25.03;15.07;;;0.50;99.90;;;;;;5095468;28;20212;-63
2024/01/16 08:50:29;;;;;;;20.60;15.30;;;0.50;99.90;;;;;;5095872;28;20184;-63
2024/01/16 08:52:54;;;;;;;20.43;15.17;;;0.50;99.90;;;;;;5095167;28;20578;-63
2024/01/16 08:55:21;;;;;;;21.27;13.97;;;0.50;99.90;;;;;;5095434;28;20212;-63
2024/01/16 08:57:46;;;;;;;26.87;14.67;;;0.50;99.90;;;;;;5095100;28;20208;-62
2024/01/16 09:00:13;;;;;;;21.33;13.27;;;0.50;99.90;;;;;;5095669;28;20188;-63
2024/01/16 09:02:39;;;;;;;20.27;13.03;;;0.50;99.90;;;;;;5095375;28;20161;-63
2024/01/16 09:05:05;;;;;;;23.47;13.40;;;0.50;99.90;;;;;;5095278;28;20191;-62
2024/01/16 09:07:30;;;;;;;18.73;12.57;;;0.50;99.90;;;;;;5095491;28;20208;-63
2024/01/16 09:09:56;;;;;;;23.27;13.17;;;0.50;99.90;;;;;;5095466;28;20176;-63
2024/01/16 09:12:22;;;;;;;23.60;11.67;;;0.60;99.90;;;;;;5095538;28;20197;-63
2024/01/16 09:14:48;;;;;;;20.40;11.93;;;0.70;99.90;;;;;;5094903;28;20603;-63
2024/01/16 09:17:13;;;;;;;19.03;12.60;;;0.70;99.90;;;;;;5095254;28;20291;-62
2024/01/16 09:19:39;;;;;;;13.97;11.37;;;0.70;97.90;;;;;;5095236;28;20200;-62
2024/01/16 09:22:05;;;;;;;13.73;10.13;;;0.70;96.10;;;;;;5095118;28;20181;-64
2024/01/16 09:24:31;;;;;;;14.30;11.23;;;0.70;83.00;;;;;;5095416;28;20167;-62
2024/01/16 09:26:58;;;;;;;17.07;11.00;;;0.70;61.90;;;;;;5095044;28;20215;-62
2024/01/16 09:29:24;;;;;;;14.07;11.53;;;0.70;38.20;;;;;;5094861;28;20177;-63
2024/01/16 09:31:50;;;;;;;20.87;11.13;;;0.70;40.60;;;;;;5095160;28;20200;-63
2024/01/16 09:34:17;;;;;;;22.37;10.23;;;0.70;34.40;;;;;;5094718;28;20173;-63
2024/01/16 09:36:43;;;;;;;24.80;10.93;;;0.70;65.30;;;;;;5093742;28;20669;-63
2024/01/16 09:39:10;;;;;;;16.67;10.23;;;0.70;64.90;;;;;;5094579;28;20176;-63
2024/01/16 09:41:42;;;;;;;13.17;9.97;;;0.80;78.30;;;;;;5094516;28;20199;-63
2024/01/16 09:44:08;;;;;;;11.53;10.40;;;0.80;20.40;;;;;;5094458;28;20543;-63
2024/01/16 09:46:37;;;;;;;20.40;10.73;;;0.70;1.00;;;;;;5094427;28;20203;-63
2024/01/16 09:49:03;;;;;;;12.50;9.80;;;0.60;1.00;;;;;;5094379;28;20172;-63
2024/01/16 09:51:29;;;;;;;11.63;10.43;;;0.70;6.60;;;;;;5094196;28;20201;-63
2024/01/16 09:53:56;;;;;;;17.07;9.70;;;0.70;1.00;;;;;;5094265;28;20204;-62
2024/01/16 09:56:26;;;;;;;13.13;10.10;;;0.70;1.00;;;;;;5094159;28;20169;-63
2024/01/16 09:58:58;;;;;;;18.03;10.53;;;0.70;1.00;;;;;;5094186;28;20201;-62
2024/01/16 10:01:28;;;;;;;19.40;10.13;;;0.70;1.00;;;;;;5094096;28;20756;-62
2024/01/16 10:03:54;;;;;;;16.83;9.53;;;0.70;1.00;;;;;;5093254;28;20182;-63
2024/01/16 10:06:20;;;;;;;10.17;8.83;;;0.70;1.00;;;;;;5093958;28;20184;-63
2024/01/16 10:08:46;;;;;;;18.33;9.20;;;0.80;1.00;;;;;;5094271;28;20256;-62
2024/01/16 10:11:12;;;;;;;9.50;8.50;;;0.70;1.00;;;;;;5094201;28;20223;-62
2024/01/16 10:13:38;;;;;;;11.73;9.23;;;0.80;1.00;;;;;;5093917;28;20177;-63
2024/01/16 10:16:04;;;;;;;15.67;9.77;;;0.80;1.00;;;;;;5093879;28;20173;-62
2024/01/16 10:18:30;;;;;;;16.13;9.20;;;0.80;1.00;;;;;;5093962;28;20681;-64
2024/01/16 10:20:56;;;;;;;11.07;9.47;;;0.80;1.00;;;;;;5093751;28;20177;-62
2024/01/16 10:23:27;;;;;;;12.30;9.23;;;0.80;1.00;;;;;;5093726;28;20173;-62
2024/01/16 10:26:12;;;;;;;13.17;8.77;;;0.90;1.00;;;;;;5094031;28;20162;-63
2024/01/16 10:28:42;;;;;;;13.13;9.40;;;0.90;1.00;;;;;;5093305;28;20197;-62
2024/01/16 10:31:15;;;;;;;10.73;9.73;;;0.90;1.00;;;;;;5093599;28;20286;-63
2024/01/16 10:33:41;;;;;;;15.33;9.13;;;0.90;1.00;;;;;;5093682;28;20157;-64
2024/01/16 10:36:14;;;;;;;12.50;8.63;;;0.90;1.00;;;;;;5093841;28;20568;-62
2024/01/16 10:38:41;;;;;;;10.97;8.87;;;0.90;1.00;;;;;;5093425;28;20196;-61
2024/01/16 10:41:17;;;;;;;11.10;9.40;;;0.90;1.00;;;;;;5093514;28;20256;-62
2024/01/16 10:43:44;;;;;;;12.73;9.77;;;0.90;1.00;;;;;;5093264;28;20606;-63
2024/01/16 10:46:15;;;;;;;11.90;9.40;;;0.90;1.00;;;;;;5093901;28;20154;-63
2024/01/16 10:48:58;;;;;;;14.30;9.40;;;0.90;1.00;;;;;;5093804;28;20160;-63
2024/01/16 10:51:27;;;;;;;13.23;9.40;;;1.00;1.00;;;;;;5093260;28;20249;-63
2024/01/16 10:53:59;;;;;;;12.07;9.47;;;1.00;1.00;;;;;;5093624;28;20546;-63
2024/01/16 10:56:27;;;;;;;15.63;9.70;;;1.00;1.00;;;;;;5093637;28;20227;-63
2024/01/16 10:59:16;;;;;;;12.27;10.03;;;1.10;1.00;;;;;;5092937;28;20204;-63
2024/01/16 11:01:46;;;;;;;12.93;8.30;;;1.20;1.00;;;;;;5085462;28;20189;-63
2024/01/16 11:04:12;;;;;;;11.03;8.63;;;1.20;1.00;;;;;;5093572;28;20572;-63
2024/01/16 11:06:41;;;;;;;12.70;9.13;;;1.30;99.90;;;;;;5093494;28;20262;-62
2024/01/16 11:09:08;;;;;;;13.40;9.40;;;1.30;99.90;;;;;;5093846;28;20574;-63
2024/01/16 11:11:35;;;;;;;16.17;9.30;;;1.40;1.00;;;;;;5093493;28;20529;-63
2024/01/16 11:14:03;;;;;;;13.40;9.30;;;1.50;1.00;;;;;;5092925;28;20651;-63
2024/01/16 11:16:32;;;;;;;14.30;9.13;;;1.60;99.90;;;;;;5095813;28;20544;-63
2024/01/16 11:18:58;;;;;;;14.73;9.47;;;1.60;99.90;;;;;;5097260;28;20213;-63
2024/01/16 11:21:25;;;;;;;11.80;9.40;;;1.60;99.90;;;;;;5097485;28;20222;-63
2024/01/16 11:23:51;;;;;;;11.57;10.37;;;1.60;99.90;;;;;;5097181;28;20169;-63
2024/01/16 11:26:39;;;;;;;12.83;9.17;;;1.60;99.90;;;;;;5097037;28;20256;-62
2024/01/16 11:29:26;;;;;;;11.07;8.93;;;1.60;99.90;;;;;;5096974;28;20189;-63
2024/01/16 11:31:52;;;;;;;18.37;9.50;;;1.60;99.90;;;;;;5097049;28;20597;-63
2024/01/16 11:34:40;;;;;;;9.83;8.80;;;1.70;99.90;;;;;;5096995;28;20232;-63
2024/01/16 11:37:08;;;;;;;10.60;9.60;;;1.60;99.90;;;;;;5096771;28;20204;-63
2024/01/16 11:39:35;;;;;;;10.47;9.13;;;1.60;99.90;;;;;;5096860;28;20177;-62
2024/01/16 11:42:04;;;;;;;11.13;9.07;;;1.50;99.90;;;;;;5095607;28;20526;-63
2024/01/16 11:44:42;;;;;;;10.53;9.10;;;1.50;99.90;;;;;;5096457;28;20176;-62
2024/01/16 11:47:14;;;;;;;11.10;9.20;;;1.40;99.90;;;;;;5095411;28;20201;-62
2024/01/16 11:49:41;;;;;;;9.87;8.90;;;1.30;99.90;;;;;;5097050;28;20158;-63
2024/01/16 11:52:07;;;;;;;10.30;9.30;;;1.30;99.90;;;;;;5096607;28;20193;-63
2024/01/16 11:54:33;;;;;;;15.30;10.03;;;1.30;99.90;;;;;;5096613;28;20186;-62
2024/01/16 11:57:27;;;;;;;11.77;9.80;;;1.30;99.90;;;;;;5096843;28;20201;-63
2024/01/16 12:00:00;;;;;;;12.30;10.43;;;1.30;99.90;;;;;;5096283;28;20149;-62
2024/01/16 12:02:43;;;;;;;21.53;9.80;;;1.20;99.90;;;;;;5096442;28;20196;-63
2024/01/16 12:05:11;;;;;;;11.13;8.80;;;1.20;99.90;;;;;;5096408;28;20165;-62
2024/01/16 12:07:50;;;;;;;14.00;9.47;;;1.20;99.90;;;;;;5096289;28;20662;-62
2024/01/16 12:10:23;;;;;;;12.23;9.83;;;1.30;99.90;;;;;;5096299;28;20221;-63
2024/01/16 12:12:50;;;;;;;15.00;9.77;;;1.20;99.90;;;;;;5096618;28;20245;-63
2024/01/16 12:15:20;;;;;;;15.90;9.40;;;1.20;99.90;;;;;;5095944;28;20165;-63
2024/01/16 12:17:57;;;;;;;10.47;9.30;;;1.20;99.90;;;;;;5096088;28;20197;-63
2024/01/16 12:20:24;;;;;;;10.77;9.50;;;1.40;99.90;;;;;;5096080;28;20633;-63
2024/01/16 12:22:54;;;;;;;12.93;9.57;;;1.40;99.90;;;;;;5096094;28;20169;-63
2024/01/16 12:25:21;;;;;;;12.97;9.87;;;1.50;99.90;;;;;;5096352;28;20197;-63
2024/01/16 12:28:04;;;;;;;13.07;9.47;;;1.40;99.90;;;;;;5095243;28;20284;-63
2024/01/16 12:30:32;;;;;;;15.80;10.30;;;1.40;1.00;;;;;;5095648;28;20184;-63
2024/01/16 12:33:08;;;;;;;13.33;9.67;;;1.40;1.00;;;;;;5096138;28;20728;-63
2024/01/16 12:35:38;;;;;;;10.73;9.63;;;1.40;36.50;;;;;;5096020;28;20582;-63
2024/01/16 12:38:06;;;;;;;20.50;10.30;;;1.40;99.90;;;;;;5095656;28;20670;-63
2024/01/16 12:40:33;;;;;;;11.03;9.03;;;1.40;57.90;;;;;;5096256;28;20557;-62